Agawam, MA (01001)

8:27 AM EDT on October 01, 2016 (GMT -0400)
Sheri Lane | | Change Station

Elev 177 ft 42.08 °N, 72.64 °W | Updated 15 seconds ago

Overcast
Overcast
48.7 °F
Feels Like 48 °F
N
3.1
Wind Variable Wind from WNW
Gusts 4.7 mph

Today
High -- | Low -- °F
--% Chance of Precip.
Yesterday
High -- | Low -- °F
Precip. -- in
Pressure 30.31 in
Visibility 2.0 miles
Clouds Overcast 800 ft
Windchill 48 °F
Dew Point 46 °F
Humidity 91%
Rainfall 0.05 in
Snow Depth Not available.
6:48 AM 6:31 PM
New Moon, 0% visible
METAR KBAF 011153Z 01013KT 2SM BR OVC008 09/08 A3030 RMK AO2 RAE33 SLP262 P0000 60000 70022 T00940083 10094 20089 50000
Pressure 30.31 in
Visibility 2.0 miles
Clouds Overcast 800 ft
Windchill 48 °F
Dew Point 46 °F
Humidity 91%
Rainfall 0.05 in
Snow Depth Not available.
6:48 AM 6:31 PM
New Moon, 0% visible
METAR KBAF 011153Z 01013KT 2SM BR OVC008 09/08 A3030 RMK AO2 RAE33 SLP262 P0000 60000 70022 T00940083 10094 20089 50000

10-Day Weather Forecast

Almanac

Astronomy

Oct. 01, 2016 Rise Set
Actual Time
Civil Twilight
Nautical Twilight
Astronomical Twilight
Moon
Length of Visible Light
Length of Day
Tomorrow will be .
, % of the Moon is Illuminated

Today's Extremes

State Highs State Lows

Community

WunderPhotos

Upload Photos

1,942,920 photos uploaded!

WunderBlog® & News

Nearby

Air Quality

  Air Quality AQ Index Pollutant
Not available.

Snow Depth

Station Depth Elevation

Earthquake Activity

City Distance Mag. Time & Date
Minimum magnitude displayed is 2.5.

Coastal Water Temperatures

Place Temperature

Stations

Nearby Weather Stations

Station Location Temp. Windchill Dew Point Humidity Wind Precip. Elev Updated Type
                   

Watches & Warnings

There are currently no watches in effect.